createdAt,value
2024-02-18T00:01:07.460Z,67521.09
2024-02-18T00:03:35.124Z,67511.69
2024-02-18T00:06:02.187Z,67524.81
2024-02-18T00:08:29.254Z,67525.22
2024-02-18T00:10:56.249Z,67525.59
2024-02-18T00:13:23.160Z,67524.81
2024-02-18T00:15:50.838Z,67518.25
2024-02-18T00:18:18.172Z,67526.91
2024-02-18T00:20:45.299Z,67528.59
2024-02-18T00:23:12.245Z,67543.63
2024-02-18T00:25:39.596Z,67553.78
2024-02-18T00:28:07.296Z,67572.16
2024-02-18T00:30:34.298Z,67559.81
2024-02-18T00:33:01.346Z,67568.78
2024-02-18T00:35:28.719Z,67553.41
2024-02-18T00:37:58.586Z,67550.00
2024-02-18T00:40:25.850Z,67553.78
2024-02-18T00:42:52.802Z,67550.38
2024-02-18T00:45:20.193Z,67550.38
2024-02-18T00:47:47.346Z,67541.75
2024-02-18T00:50:14.404Z,67533.47
2024-02-18T00:52:41.640Z,67541.34
2024-02-18T00:55:10.116Z,67536.84
2024-02-18T00:57:37.288Z,67553.00
2024-02-18T01:00:05.263Z,67553.97
2024-02-18T01:02:32.395Z,67553.78
2024-02-18T01:04:59.464Z,67515.44
2024-02-18T01:07:26.562Z,67485.75
2024-02-18T01:09:53.977Z,67475.66
2024-02-18T01:12:21.031Z,67470.59
2024-02-18T01:14:48.614Z,67467.00
2024-02-18T01:17:15.868Z,67466.66
2024-02-18T01:19:43.224Z,67472.06
2024-02-18T01:22:11.023Z,67457.81
2024-02-18T01:24:38.442Z,67454.97
2024-02-18T01:27:05.765Z,67441.69
2024-02-18T01:29:32.793Z,67441.09
2024-02-18T01:32:00.100Z,67445.22
2024-02-18T01:34:27.171Z,67449.56
2024-02-18T01:36:54.258Z,67445.81
2024-02-18T01:39:21.257Z,67453.50
2024-02-18T01:41:48.540Z,67467.38
2024-02-18T01:44:15.497Z,67452.72
2024-02-18T01:46:44.599Z,67439.97
2024-02-18T01:49:12.914Z,67435.47
2024-02-18T01:51:40.335Z,67425.91
2024-02-18T01:54:07.722Z,67415.22
2024-02-18T01:56:35.148Z,67410.69
2024-02-18T01:59:02.196Z,67407.88
2024-02-18T02:01:29.566Z,67403.72
2024-02-18T02:03:59.670Z,67398.31
2024-02-18T02:06:28.814Z,67399.22
2024-02-18T02:08:56.368Z,67392.69
2024-02-18T02:11:23.422Z,67412.38
2024-02-18T02:13:51.050Z,67412.38
2024-02-18T02:16:20.044Z,67395.84
2024-02-18T02:18:47.353Z,67375.03
2024-02-18T02:21:14.303Z,67363.44
2024-02-18T02:23:41.520Z,67356.53
2024-02-18T02:26:09.315Z,67369.41
2024-02-18T02:28:41.056Z,67369.25
2024-02-18T02:31:08.113Z,67371.31
2024-02-18T02:33:35.057Z,67379.97
2024-02-18T02:36:02.016Z,67389.66
2024-02-18T02:38:29.577Z,67388.94
2024-02-18T02:40:56.639Z,67389.31
2024-02-18T02:43:24.807Z,67373.56
2024-02-18T02:45:51.881Z,67381.44
2024-02-18T02:48:18.825Z,67401.47
2024-02-18T02:50:45.747Z,67358.00
2024-02-18T02:53:13.318Z,67370.75
2024-02-18T02:55:40.213Z,67380.88
2024-02-18T02:58:07.380Z,67379.75
2024-02-18T03:00:34.458Z,67390.22
2024-02-18T03:03:01.391Z,67380.09
2024-02-18T03:05:28.337Z,67376.16
2024-02-18T03:07:55.225Z,67377.84
2024-02-18T03:10:22.192Z,67389.47
2024-02-18T03:12:49.183Z,67383.91
2024-02-18T03:15:16.160Z,67382.75
2024-02-18T03:17:43.079Z,67380.09
2024-02-18T03:20:13.134Z,67382.00
2024-02-18T03:22:40.690Z,67375.03
2024-02-18T03:25:07.980Z,67382.19
2024-02-18T03:27:35.276Z,67390.63
2024-02-18T03:30:03.057Z,67377.50
2024-02-18T03:32:30.113Z,67374.47
2024-02-18T03:34:57.136Z,67380.66
2024-02-18T03:37:24.124Z,67379.31
2024-02-18T03:39:51.724Z,67369.97
2024-02-18T03:42:18.769Z,67362.88
2024-02-18T03:44:45.782Z,67351.63
2024-02-18T03:47:12.697Z,67347.88
2024-02-18T03:49:40.035Z,67348.00
2024-02-18T03:52:07.828Z,67335.66
2024-02-18T03:54:34.964Z,67321.44
2024-02-18T03:57:01.938Z,67322.69
2024-02-18T03:59:28.845Z,67304.91
2024-02-18T04:01:55.775Z,67308.09
2024-02-18T04:04:23.236Z,67303.78
2024-02-18T04:06:50.351Z,67295.94
2024-02-18T04:09:17.465Z,67302.66
2024-02-18T04:11:44.487Z,67296.69
2024-02-18T04:14:11.521Z,67297.03
2024-02-18T04:16:38.554Z,67288.06
2024-02-18T04:19:05.640Z,67293.88
2024-02-18T04:21:32.727Z,67298.53
2024-02-18T04:23:59.655Z,67292.75
2024-02-18T04:26:26.616Z,67292.91
2024-02-18T04:28:53.660Z,67286.38
2024-02-18T04:31:20.799Z,67274.75
2024-02-18T04:33:47.781Z,67296.25
2024-02-18T04:36:14.783Z,67283.19
2024-02-18T04:38:41.908Z,67285.59
2024-02-18T04:41:08.905Z,67278.50
2024-02-18T04:43:36.350Z,67280.16
2024-02-18T04:46:05.766Z,67285.78
2024-02-18T04:48:37.288Z,67273.63
2024-02-18T04:51:04.598Z,67269.69
2024-02-18T04:53:32.582Z,67277.16
2024-02-18T04:55:59.467Z,67267.81
2024-02-18T04:58:26.377Z,67264.06
2024-02-18T05:00:53.328Z,67263.31
2024-02-18T05:03:22.474Z,67266.47
2024-02-18T05:05:49.580Z,67255.84
2024-02-18T05:08:16.542Z,67255.09
2024-02-18T05:10:43.413Z,67247.00
2024-02-18T05:13:10.322Z,67245.09
2024-02-18T05:15:37.248Z,67244.56
2024-02-18T05:18:04.326Z,67228.66
2024-02-18T05:20:31.231Z,67230.34
2024-02-18T05:22:58.411Z,67236.66
2024-02-18T05:25:25.370Z,67230.13
2024-02-18T05:27:52.398Z,67238.94
2024-02-18T05:30:19.425Z,67227.09
2024-02-18T05:32:46.741Z,67242.50
2024-02-18T05:35:14.271Z,67226.56
2024-02-18T05:37:42.005Z,67230.34
2024-02-18T05:40:09.126Z,67228.25
2024-02-18T05:42:36.094Z,67230.69
2024-02-18T05:45:04.063Z,67244.19
2024-02-18T05:47:31.036Z,67238.00
2024-02-18T05:49:58.024Z,67234.63
2024-02-18T05:52:24.985Z,67236.88
2024-02-18T05:54:52.383Z,67242.50
2024-02-18T05:57:19.479Z,67225.28
2024-02-18T05:59:46.470Z,67236.09
2024-02-18T06:02:13.396Z,67230.69
2024-02-18T06:04:40.331Z,67231.63
2024-02-18T06:07:07.303Z,67223.38
2024-02-18T06:09:34.406Z,67223.94
2024-02-18T06:12:01.854Z,67225.44
2024-02-18T06:14:29.653Z,67216.63
2024-02-18T06:16:57.083Z,67227.69
2024-02-18T06:19:24.081Z,67211.78
2024-02-18T06:21:51.497Z,67225.44
2024-02-18T06:24:18.454Z,67174.09
2024-02-18T06:26:45.418Z,67222.06
2024-02-18T06:29:12.341Z,67213.84
2024-02-18T06:31:39.222Z,67212.16
2024-02-18T06:34:06.341Z,67211.94
2024-02-18T06:36:37.293Z,67165.88
2024-02-18T06:39:04.708Z,67229.38
2024-02-18T06:41:32.064Z,67228.78
2024-02-18T06:43:58.973Z,67238.94
2024-02-18T06:46:25.844Z,67247.00
2024-02-18T06:48:53.260Z,67269.13
2024-02-18T06:51:20.302Z,67271.97
2024-02-18T06:53:47.190Z,67270.03
2024-02-18T06:56:17.727Z,67263.09
2024-02-18T06:58:45.042Z,67275.31
2024-02-18T07:01:13.964Z,67269.69
2024-02-18T07:03:40.935Z,67278.84
2024-02-18T07:06:07.867Z,67296.25
2024-02-18T07:08:35.130Z,67309.22
2024-02-18T07:11:02.145Z,67327.41
2024-02-18T07:13:29.214Z,67340.56
2024-02-18T07:15:56.146Z,67344.66
2024-02-18T07:18:23.491Z,67327.63
2024-02-18T07:20:50.560Z,67330.03
2024-02-18T07:23:17.457Z,67339.81
2024-02-18T07:25:46.016Z,67365.31
2024-02-18T07:28:13.128Z,67383.91
2024-02-18T07:30:40.202Z,67398.50
2024-02-18T07:33:08.032Z,67419.16
2024-02-18T07:35:34.997Z,67394.56
2024-02-18T07:38:01.899Z,67399.09
2024-02-18T07:40:28.845Z,67398.31
2024-02-18T07:42:55.868Z,67391.78
2024-02-18T07:45:23.099Z,67414.63
2024-02-18T07:47:50.142Z,67397.19
2024-02-18T07:50:17.747Z,67393.66
2024-02-18T07:52:44.806Z,67394.75
2024-02-18T07:55:11.806Z,67402.44
2024-02-18T07:57:39.745Z,67364.75
2024-02-18T08:00:07.080Z,67356.31
2024-02-18T08:02:33.952Z,67368.84
2024-02-18T08:05:01.118Z,67359.50
2024-02-18T08:07:36.028Z,67387.78
2024-02-18T08:10:03.104Z,67375.59
2024-02-18T08:12:30.610Z,67369.06
2024-02-18T08:14:57.757Z,67381.44
2024-02-18T08:17:24.733Z,67385.00
2024-02-18T08:19:52.402Z,67398.13
2024-02-18T08:22:19.577Z,67433.78
2024-02-18T08:24:46.595Z,67435.88
2024-02-18T08:27:13.489Z,67448.63
2024-02-18T08:29:42.419Z,67478.28
2024-02-18T08:32:09.340Z,67527.28
2024-02-18T08:34:36.935Z,67551.16
2024-02-18T08:37:04.749Z,67578.56
2024-02-18T08:39:31.870Z,67545.16
2024-02-18T08:41:58.869Z,67536.72
2024-02-18T08:44:25.768Z,67546.28
2024-02-18T08:46:53.040Z,67562.78
2024-02-18T08:49:20.212Z,67608.28
2024-02-18T08:51:47.273Z,67608.25
2024-02-18T08:54:14.506Z,67607.31
2024-02-18T08:56:41.400Z,67648.69
2024-02-18T08:59:08.343Z,67711.84
2024-02-18T09:01:35.520Z,67765.69
2024-02-18T09:04:02.812Z,67742.69
2024-02-18T09:06:30.336Z,67785.41
2024-02-18T09:08:57.294Z,67808.38
2024-02-18T09:11:24.749Z,67793.88
2024-02-18T09:13:51.769Z,67802.34
2024-02-18T09:16:18.729Z,67805.56
2024-02-18T09:18:46.771Z,67845.81
2024-02-18T09:21:13.815Z,67867.88
2024-02-18T09:23:40.719Z,67854.91
2024-02-18T09:26:08.945Z,67845.44
2024-02-18T09:28:35.852Z,67800.84
2024-02-18T09:31:04.013Z,67807.81
2024-02-18T09:33:31.218Z,67822.13
2024-02-18T09:35:58.429Z,67841.13
2024-02-18T09:38:25.596Z,67854.13
2024-02-18T09:40:52.933Z,67883.72
2024-02-18T09:43:20.628Z,67910.28
2024-02-18T09:45:48.230Z,67956.03
2024-02-18T09:48:16.319Z,67977.50
2024-02-18T09:50:43.356Z,67935.31
2024-02-18T09:53:12.628Z,67953.22
2024-02-18T09:55:39.580Z,67969.03
2024-02-18T09:58:08.165Z,67977.50
2024-02-18T10:00:36.809Z,67993.75
2024-02-18T10:03:04.767Z,68008.25
2024-02-18T10:05:32.796Z,67974.13
2024-02-18T10:08:03.778Z,67984.47
2024-02-18T10:10:37.559Z,67986.38
2024-02-18T10:13:06.400Z,67983.53
2024-02-18T10:15:33.993Z,67941.91
2024-02-18T10:18:01.672Z,67930.22
2024-02-18T10:20:29.206Z,67924.75
2024-02-18T10:22:56.151Z,67907.81
2024-02-18T10:25:23.157Z,67926.25
2024-02-18T10:27:50.151Z,67929.66
2024-02-18T10:30:18.105Z,67956.22
2024-02-18T10:32:45.094Z,67978.66
2024-02-18T10:35:12.277Z,68006.72
2024-02-18T10:37:40.099Z,68020.88
2024-02-18T10:40:33.507Z,68035.06
2024-02-18T10:43:02.463Z,68100.44
2024-02-18T10:45:30.194Z,68109.31
2024-02-18T10:47:59.344Z,68116.66
2024-02-18T10:50:27.060Z,68131.97
2024-02-18T10:54:46.044Z,68163.47
2024-02-18T10:57:13.669Z,68188.00
2024-02-18T11:00:06.092Z,68247.69
2024-02-18T11:02:40.448Z,68260.34
2024-02-18T11:05:08.746Z,68281.47
2024-02-18T11:07:37.571Z,68301.13
2024-02-18T11:10:05.763Z,68287.16
2024-02-18T11:12:34.384Z,68300.53
2024-02-18T11:15:05.123Z,68276.94
2024-02-18T11:17:32.257Z,68262.22
2024-02-18T11:20:00.360Z,68266.19
2024-02-18T11:22:29.080Z,68290.91
2024-02-18T11:24:56.916Z,68315.66
2024-02-18T11:27:23.945Z,68315.09
2024-02-18T11:29:52.513Z,68328.91
2024-02-18T11:32:19.722Z,68340.25
2024-02-18T11:34:50.168Z,68342.69
2024-02-18T11:37:34.880Z,68293.19
2024-02-18T11:40:13.483Z,68314.53
2024-02-18T11:42:42.458Z,68308.84
2024-02-18T11:45:15.050Z,68334.19
2024-02-18T11:47:54.097Z,68353.28
2024-02-18T11:50:23.473Z,68381.06
2024-02-18T11:52:51.677Z,68389.38
2024-02-18T11:55:19.708Z,68376.16
2024-02-18T11:57:48.219Z,68352.16
2024-02-18T12:00:20.278Z,68342.53
2024-02-18T12:02:52.524Z,68382.56
2024-02-18T12:05:22.457Z,68366.69
2024-02-18T12:07:51.487Z,68382.56
2024-02-18T12:10:19.351Z,68402.44
2024-02-18T12:12:46.597Z,68394.09
2024-02-18T12:15:25.193Z,68404.88
2024-02-18T12:17:55.159Z,68406.03
2024-02-18T12:20:25.954Z,68394.31
2024-02-18T12:22:53.061Z,68377.66
2024-02-18T12:25:22.506Z,68429.66
2024-02-18T12:27:51.264Z,68447.03
2024-02-18T12:30:23.525Z,68433.03
2024-02-18T12:32:51.754Z,68401.66
2024-02-18T12:35:20.763Z,68410.94
2024-02-18T12:37:48.446Z,68404.88
2024-02-18T12:40:16.241Z,68386.34
2024-02-18T12:42:55.912Z,68396.19
2024-02-18T12:45:42.983Z,68405.25
2024-02-18T12:48:15.652Z,68402.44
2024-02-18T12:50:44.218Z,68419.63
2024-02-18T12:53:11.456Z,68419.63
2024-02-18T12:55:39.402Z,68379.38
2024-02-18T12:58:07.413Z,68359.53
2024-02-18T13:00:35.234Z,68338.34
2024-02-18T13:03:08.949Z,68339.09
2024-02-18T13:05:36.230Z,68357.25
2024-02-18T13:08:05.903Z,68380.88
2024-02-18T13:10:33.622Z,68360.28
2024-02-18T13:13:00.999Z,68337.22
2024-02-18T13:15:28.972Z,68345.72
2024-02-18T13:17:56.501Z,68358.38
2024-02-18T13:20:23.843Z,68357.25
2024-02-18T13:22:51.442Z,68350.44
2024-02-18T13:25:19.012Z,68328.34
2024-02-18T13:27:46.602Z,68321.53
2024-02-18T13:30:14.925Z,68322.66
2024-02-18T13:32:42.929Z,68332.31
2024-02-18T13:35:10.146Z,68333.44
2024-02-18T13:37:37.320Z,68347.97
2024-02-18T13:40:07.434Z,68338.00
2024-02-18T13:42:34.968Z,68334.75
2024-02-18T13:45:02.220Z,68342.53
2024-02-18T13:47:29.408Z,68362.56
2024-02-18T13:49:59.135Z,68368.59
2024-02-18T13:52:27.299Z,68372.56
2024-02-18T13:54:54.688Z,68369.94
2024-02-18T13:57:21.898Z,68396.38
2024-02-18T13:59:49.092Z,68407.91
2024-02-18T14:02:16.182Z,68377.28
2024-02-18T14:04:43.380Z,68381.44
2024-02-18T14:07:10.976Z,68382.38
2024-02-18T14:09:38.113Z,68361.22
2024-02-18T14:12:07.636Z,68361.03
2024-02-18T14:14:38.448Z,68364.81
2024-02-18T14:17:07.622Z,68341.97
2024-02-18T14:19:36.240Z,68341.38
2024-02-18T14:22:03.667Z,68335.69
2024-02-18T14:24:32.303Z,68334.75
2024-02-18T14:26:59.447Z,68339.09
2024-02-18T14:29:26.538Z,68329.28
2024-02-18T14:31:53.634Z,68324.38
2024-02-18T14:34:20.979Z,68323.03
2024-02-18T14:36:48.499Z,68315.09
2024-02-18T14:39:15.586Z,68319.44
2024-02-18T14:41:43.109Z,68327.56
2024-02-18T14:44:10.215Z,68317.00
2024-02-18T14:46:37.304Z,68321.72
2024-02-18T14:49:04.559Z,68328.13
2024-02-18T14:51:32.819Z,68307.34
2024-02-18T14:54:00.080Z,68305.28
2024-02-18T14:56:27.172Z,68301.69
2024-02-18T14:58:54.329Z,68307.16
2024-02-18T15:01:21.689Z,68300.94
2024-02-18T15:03:48.854Z,68313.03
2024-02-18T15:06:16.879Z,68304.91
2024-02-18T15:08:44.155Z,68321.13
2024-02-18T15:11:11.287Z,68314.72
2024-02-18T15:13:38.470Z,68304.91
2024-02-18T15:16:06.084Z,68317.72
2024-02-18T15:18:34.174Z,68304.16
2024-02-18T15:21:01.539Z,68314.91
2024-02-18T15:23:28.617Z,68314.16
2024-02-18T15:25:55.827Z,68306.59
2024-02-18T15:28:22.968Z,68295.63
2024-02-18T15:30:50.273Z,68303.19
2024-02-18T15:33:17.545Z,68303.19
2024-02-18T15:35:48.848Z,68298.84
2024-02-18T15:38:16.031Z,68296.97
2024-02-18T15:40:43.224Z,68293.00
2024-02-18T15:43:10.877Z,68296.97
2024-02-18T15:45:38.126Z,68293.56
2024-02-18T15:48:06.142Z,68275.44
2024-02-18T15:50:33.467Z,68276.00
2024-02-18T15:53:03.779Z,68277.13
2024-02-18T15:55:42.332Z,68271.47
2024-02-18T15:58:16.739Z,68263.91
2024-02-18T16:00:44.008Z,68251.81
2024-02-18T16:03:11.292Z,68252.19
2024-02-18T16:05:38.382Z,68245.78
2024-02-18T16:08:06.925Z,68252.19
2024-02-18T16:10:33.983Z,68238.59
2024-02-18T16:13:01.442Z,68239.16
2024-02-18T16:15:29.177Z,68225.56
2024-02-18T16:17:56.817Z,68206.91
2024-02-18T16:20:24.143Z,68205.19
2024-02-18T16:22:51.428Z,68199.16
2024-02-18T16:25:19.026Z,68195.38
2024-02-18T16:27:46.190Z,68198.41
2024-02-18T16:30:16.837Z,68202.72
2024-02-18T16:32:44.014Z,68189.91
2024-02-18T16:35:11.243Z,68191.78
2024-02-18T16:37:38.423Z,68195.00
2024-02-18T16:40:06.242Z,68192.53
2024-02-18T16:42:33.666Z,68183.66
2024-02-18T16:45:00.930Z,68175.94
2024-02-18T16:47:28.105Z,68183.47
2024-02-18T16:49:55.391Z,68176.31
2024-02-18T16:52:22.672Z,68181.03
2024-02-18T16:54:49.889Z,68178.56
2024-02-18T16:57:16.971Z,68178.38
2024-02-18T16:59:44.353Z,68162.72
2024-02-18T17:02:11.735Z,68165.19
2024-02-18T17:04:39.063Z,68151.78
2024-02-18T17:07:06.432Z,68136.31
2024-02-18T17:09:33.567Z,68131.22
2024-02-18T17:12:00.736Z,68121.59
2024-02-18T17:14:28.928Z,68122.31
2024-02-18T17:16:56.218Z,68105.53
2024-02-18T17:19:27.652Z,68112.34
2024-02-18T17:21:58.082Z,68107.22
2024-02-18T17:26:59.365Z,68098.94
2024-02-18T17:29:26.536Z,68097.78
2024-02-18T17:31:55.838Z,68084.97
2024-02-18T17:34:26.120Z,68088.19
2024-02-18T17:36:53.889Z,68091.56
2024-02-18T17:39:22.822Z,68086.28
2024-02-18T17:41:49.826Z,68081.78
2024-02-18T17:44:17.005Z,68083.25
2024-02-18T17:46:44.445Z,68079.69
2024-02-18T17:49:12.800Z,68068.38
2024-02-18T17:51:41.178Z,68074.97
2024-02-18T17:54:08.311Z,68069.53
2024-02-18T17:56:36.544Z,68061.59
2024-02-18T17:59:08.287Z,68068.38
2024-02-18T18:01:35.766Z,68058.75
2024-02-18T18:04:03.141Z,68063.88
2024-02-18T18:06:31.038Z,68055.00
2024-02-18T18:08:58.065Z,68053.47
2024-02-18T18:11:25.123Z,68047.06
2024-02-18T18:13:52.204Z,68042.16
2024-02-18T18:16:19.868Z,68037.09
2024-02-18T18:18:46.998Z,68041.59
2024-02-18T18:21:14.708Z,68036.72
2024-02-18T18:23:41.971Z,68033.88
2024-02-18T18:26:09.866Z,68042.53
2024-02-18T18:28:37.073Z,68038.75
2024-02-18T18:31:05.195Z,68034.81
2024-02-18T18:33:32.476Z,68030.66
2024-02-18T18:36:00.835Z,68038.75
2024-02-18T18:38:29.419Z,68029.72
2024-02-18T18:40:56.909Z,68032.91
2024-02-18T18:43:24.035Z,68022.00
2024-02-18T18:45:51.168Z,68026.69
2024-02-18T18:48:18.977Z,68026.53
2024-02-18T18:50:47.419Z,68029.72
2024-02-18T18:53:14.464Z,68018.97
2024-02-18T18:55:41.845Z,68015.22
2024-02-18T18:58:09.424Z,68023.13
2024-02-18T19:00:36.729Z,68022.38
2024-02-18T19:03:04.092Z,68015.38
2024-02-18T19:05:31.692Z,68019.56
2024-02-18T19:07:58.916Z,68012.38
2024-02-18T19:10:26.131Z,68007.47
2024-02-18T19:12:53.287Z,68001.06
2024-02-18T19:15:21.619Z,68005.78
2024-02-18T19:17:49.269Z,68005.41
2024-02-18T19:20:16.592Z,68005.59
2024-02-18T19:22:43.702Z,68002.59
2024-02-18T19:25:11.056Z,67991.66
2024-02-18T19:27:38.329Z,67988.44
2024-02-18T19:30:10.006Z,67990.34
2024-02-18T19:32:37.137Z,67986.19
2024-02-18T19:35:04.710Z,67977.34
2024-02-18T19:37:32.940Z,67973.38
2024-02-18T19:40:01.078Z,67966.78
2024-02-18T19:42:31.638Z,67972.81
2024-02-18T19:44:59.712Z,67974.31
2024-02-18T19:47:28.112Z,67965.25
2024-02-18T19:49:55.531Z,67968.28
2024-02-18T19:52:22.844Z,67968.66
2024-02-18T19:54:49.965Z,67960.38
2024-02-18T19:57:17.180Z,67967.31
2024-02-18T19:59:47.174Z,67958.66
2024-02-18T20:02:14.681Z,67966.41
2024-02-18T20:04:42.458Z,67957.75
2024-02-18T20:07:09.617Z,67961.66
2024-02-18T20:09:37.851Z,67953.00
2024-02-18T20:12:05.310Z,67953.00
2024-02-18T20:14:32.388Z,67957.16
2024-02-18T20:16:59.540Z,67956.59
2024-02-18T20:19:26.740Z,67954.53
2024-02-18T20:21:55.068Z,67953.00
2024-02-18T20:24:22.714Z,67950.00
2024-02-18T20:26:49.861Z,67951.50
2024-02-18T20:29:16.996Z,67950.00
2024-02-18T20:31:44.101Z,67947.72
2024-02-18T20:34:11.281Z,67948.50
2024-02-18T20:36:40.099Z,67952.28
2024-02-18T20:39:09.477Z,67954.91
2024-02-18T20:41:36.775Z,67950.00
2024-02-18T20:44:04.051Z,67949.63
2024-02-18T20:46:31.157Z,67949.81
2024-02-18T20:48:58.466Z,67952.44
2024-02-18T20:51:25.655Z,67959.25
2024-02-18T20:53:53.134Z,67966.22
2024-02-18T20:56:20.296Z,67972.22
2024-02-18T20:58:47.590Z,67961.88
2024-02-18T21:01:14.943Z,67959.41
2024-02-18T21:03:42.608Z,67958.28
2024-02-18T21:06:09.831Z,67961.13
2024-02-18T21:08:37.631Z,67955.47
2024-02-18T21:11:07.184Z,67955.66
2024-02-18T21:13:34.705Z,67962.44
2024-02-18T21:16:01.876Z,67956.78
2024-02-18T21:18:29.106Z,67967.88
2024-02-18T21:20:56.304Z,67954.72
2024-02-18T21:23:23.615Z,67957.56
2024-02-18T21:25:51.061Z,67950.00
2024-02-18T21:28:20.252Z,67940.41
2024-02-18T21:30:47.566Z,67945.84
2024-02-18T21:33:18.194Z,67943.97
2024-02-18T21:35:45.504Z,67956.97
2024-02-18T21:38:12.616Z,67967.72
2024-02-18T21:40:40.353Z,67968.47
2024-02-18T21:43:07.859Z,67959.25
2024-02-18T21:45:35.286Z,67964.50
2024-02-18T21:48:02.566Z,67961.13
2024-02-18T21:50:29.736Z,67964.31
2024-02-18T21:52:56.824Z,67969.78
2024-02-18T21:55:23.990Z,67959.97
2024-02-18T21:57:51.186Z,67947.16
2024-02-18T22:00:18.381Z,67956.00
2024-02-18T22:02:45.445Z,67944.91
2024-02-18T22:05:13.553Z,67944.16
2024-02-18T22:07:40.893Z,67940.41
2024-02-18T22:10:08.569Z,67943.97
2024-02-18T22:12:35.705Z,67929.84
2024-02-18T22:15:04.067Z,67928.16
2024-02-18T22:17:31.240Z,67939.66
2024-02-18T22:19:58.538Z,67948.88
2024-02-18T22:22:25.807Z,67940.59
2024-02-18T22:24:52.975Z,67931.91
2024-02-18T22:27:20.038Z,67931.75
2024-02-18T22:29:47.444Z,67937.56
2024-02-18T22:32:14.689Z,67940.03
2024-02-18T22:34:42.451Z,67936.06
2024-02-18T22:37:15.101Z,67923.63
2024-02-18T22:39:44.050Z,67941.72
2024-02-18T22:42:11.362Z,67949.63
2024-02-18T22:44:39.032Z,67947.16
2024-02-18T22:47:06.305Z,67923.25
2024-02-18T22:49:33.503Z,67927.97
2024-02-18T22:52:00.795Z,67930.06
2024-02-18T22:54:27.942Z,67929.28
2024-02-18T22:56:55.640Z,67920.81
2024-02-18T22:59:22.751Z,67916.84
2024-02-18T23:01:53.634Z,67913.84
2024-02-18T23:04:20.876Z,67918.91
2024-02-18T23:06:48.048Z,67917.22
2024-02-18T23:09:15.204Z,67912.91
2024-02-18T23:11:42.862Z,67911.75
2024-02-18T23:14:09.988Z,67911.19
2024-02-18T23:16:37.129Z,67917.97
2024-02-18T23:19:04.254Z,67914.03
2024-02-18T23:21:31.466Z,67914.59
2024-02-18T23:23:58.502Z,67913.84
2024-02-18T23:26:25.574Z,67917.03
2024-02-18T23:28:52.870Z,67914.94
2024-02-18T23:31:20.118Z,67910.63
2024-02-18T23:33:47.677Z,67922.66
2024-02-18T23:36:14.805Z,67905.56
2024-02-18T23:38:42.574Z,67901.59
2024-02-18T23:41:09.789Z,67901.38
2024-02-18T23:43:41.453Z,67911.00
2024-02-18T23:46:10.947Z,67901.59
2024-02-18T23:48:38.444Z,67905.56
2024-02-18T23:51:05.881Z,67923.63
2024-02-18T23:53:32.981Z,67932.47
2024-02-18T23:56:00.249Z,67942.28
2024-02-18T23:58:27.420Z,67948.31
